地図

経路データ

SID SEASON NUMBER BASIN SUBBASIN NAME ISO_TIME NATURE LAT LON WMO_WIND WMO_PRES WMO_AGENCY TRACK_TYPE DIST2LAND LANDFALL IFLAG USA_AGENCY USA_ATCF_ID USA_LAT USA_LON USA_RECORD USA_STATUS USA_WIND USA_PRES USA_SSHS USA_R34_NE USA_R34_SE USA_R34_SW USA_R34_NW USA_R50_NE USA_R50_SE USA_R50_SW USA_R50_NW USA_R64_NE USA_R64_SE USA_R64_SW USA_R64_NW USA_POCI USA_ROCI USA_RMW USA_EYE TOKYO_LAT TOKYO_LON TOKYO_GRADE TOKYO_WIND TOKYO_PRES TOKYO_R50_DIR TOKYO_R50_LONG TOKYO_R50_SHORT TOKYO_R30_DIR TOKYO_R30_LONG TOKYO_R30_SHORT TOKYO_LAND CMA_LAT CMA_LON CMA_CAT CMA_WIND CMA_PRES HKO_LAT HKO_LON HKO_CAT HKO_WIND HKO_PRES NEWDELHI_LAT NEWDELHI_LON NEWDELHI_GRADE NEWDELHI_WIND NEWDELHI_PRES NEWDELHI_CI NEWDELHI_DP NEWDELHI_POCI REUNION_LAT REUNION_LON REUNION_TYPE REUNION_WIND REUNION_PRES REUNION_TNUM REUNION_CI REUNION_RMW REUNION_R34_NE REUNION_R34_SE REUNION_R34_SW REUNION_R34_NW REUNION_R50_NE REUNION_R50_SE REUNION_R50_SW REUNION_R50_NW REUNION_R64_NE REUNION_R64_SE REUNION_R64_SW REUNION_R64_NW BOM_LAT BOM_LON BOM_TYPE BOM_WIND BOM_PRES BOM_TNUM BOM_CI BOM_RMW BOM_R34_NE BOM_R34_SE BOM_R34_SW BOM_R34_NW BOM_R50_NE BOM_R50_SE BOM_R50_SW BOM_R50_NW BOM_R64_NE BOM_R64_SE BOM_R64_SW BOM_R64_NW BOM_ROCI BOM_POCI BOM_EYE BOM_POS_METHOD BOM_PRES_METHOD NADI_LAT NADI_LON NADI_CAT NADI_WIND NADI_PRES WELLINGTON_LAT WELLINGTON_LON WELLINGTON_WIND WELLINGTON_PRES DS824_LAT DS824_LON DS824_STAGE DS824_WIND DS824_PRES TD9636_LAT TD9636_LON TD9636_STAGE TD9636_WIND TD9636_PRES TD9635_LAT TD9635_LON TD9635_WIND TD9635_PRES TD9635_ROCI NEUMANN_LAT NEUMANN_LON NEUMANN_CLASS NEUMANN_WIND NEUMANN_PRES MLC_LAT MLC_LON MLC_CLASS MLC_WIND MLC_PRES USA_GUST BOM_GUST BOM_GUST_PER REUNION_GUST REUNION_GUST_PER USA_SEAHGT USA_SEARAD_NE USA_SEARAD_SE USA_SEARAD_SW USA_SEARAD_NW STORM_SPEED STORM_DIR
1950213N25128 1950 46 WP MM NOT_NAMED 1950-08-01 06:00:00 TS 25.0000 128.000 main 604 574 __O___________ -1 25.0000 128.000 0 997 7 252
1950213N25128 1950 46 WP MM NOT_NAMED 1950-08-01 09:00:00 TS 24.9001 127.652 main 574 534 __P___________ -1 24.9001 127.652 0 997 7 253
1950213N25128 1950 46 WP MM NOT_NAMED 1950-08-01 12:00:00 TS 24.8000 127.300 main 534 505 __O___________ -1 24.8000 127.300 0 997 7 253
1950213N25128 1950 46 WP MM NOT_NAMED 1950-08-01 15:00:00 TS 24.7000 126.943 main 495 466 __P___________ -1 24.7000 126.943 0 996 7 253
1950213N25128 1950 46 WP MM NOT_NAMED 1950-08-01 18:00:00 TS 24.6000 126.600 main 466 437 __O___________ -1 24.6000 126.600 0 996 6 252
1950213N25128 1950 46 WP MM NOT_NAMED 1950-08-01 21:00:00 TS 24.5075 126.278 main 437 409 __P___________ -1 24.5075 126.278 0 996 6 250
1950213N25128 1950 46 WP MM NOT_NAMED 1950-08-02 00:00:00 TS 24.4000 126.000 main 409 391 __O___________ -1 24.4000 126.000 0 996 5 244
1950213N25128 1950 46 WP MM NOT_NAMED 1950-08-02 03:00:00 TS 24.2800 125.755 main 391 374 __P___________ -1 24.2800 125.755 0 995 5 230
1950213N25128 1950 46 WP MM NOT_NAMED 1950-08-02 06:00:00 TS 24.1000 125.600 main 377 377 __O___________ -1 24.1000 125.600 1 29 995 6 199
1950213N25128 1950 46 WP MM NOT_NAMED 1950-08-02 09:00:00 TS 23.7550 125.563 main 383 383 __P___________ -1 23.7550 125.563 1 29 995 6 179
1950213N25128 1950 46 WP MM NOT_NAMED 1950-08-02 12:00:00 TS 23.5000 125.600 main 391 391 __O___________ -1 23.5000 125.600 1 29 995 2 140
1950213N25128 1950 46 WP MM NOT_NAMED 1950-08-02 15:00:00 TS 23.5898 125.717 main 398 393 __P___________ -1 23.5898 125.717 1 29 995 3 16
1950213N25128 1950 46 WP MM NOT_NAMED 1950-08-02 18:00:00 TS 23.8000 125.700 main 393 361 __O___________ -1 23.8000 125.700 1 29 995 5 315
1950213N25128 1950 46 WP MM NOT_NAMED 1950-08-02 21:00:00 TS 23.9300 125.348 main 351 299 __P___________ -1 23.9300 125.348 1 29 995 8 284
1950213N25128 1950 46 WP MM NOT_NAMED 1950-08-03 00:00:00 TS 24.0000 124.800 main 299 239 __O___________ -1 24.0000 124.800 1 29 995 10 273
1950213N25128 1950 46 WP MM NOT_NAMED 1950-08-03 03:00:00 TS 23.9877 124.207 main 239 184 __P___________ -1 23.9877 124.207 1 29 995 11 265
1950213N25128 1950 46 WP MM NOT_NAMED 1950-08-03 06:00:00 TS 23.9000 123.600 main 184 144 __O___________ -1 23.9000 123.600 1 29 995 11 258
1950213N25128 1950 46 WP MM NOT_NAMED 1950-08-03 09:00:00 TS 23.7723 123.078 main 144 112 __P___________ -1 23.7723 123.078 1 996 10 252
1950213N25128 1950 46 WP MM NOT_NAMED 1950-08-03 12:00:00 TS 23.6000 122.600 main 112 69 __O___________ -1 23.6000 122.600 0 997 10 249
1950213N25128 1950 46 WP MM NOT_NAMED 1950-08-03 15:00:00 TS 23.4301 122.105 main 69 30 __P___________ -1 23.4301 122.105 0 997 9 244
1950213N25128 1950 46 WP MM NOT_NAMED 1950-08-03 18:00:00 TS 23.2000 121.700 main 30 15 __O___________ -1 23.2000 121.700 0 997 8 227
1950213N25128 1950 46 WP MM NOT_NAMED 1950-08-03 21:00:00 TS 22.8774 121.452 main 23 15 __P___________ -1 22.8774 121.452 0 997 8 208
1950213N25128 1950 46 WP MM NOT_NAMED 1950-08-04 00:00:00 TS 22.5000 121.300 main 32 __O___________ -1 22.5000 121.300 0 997 8 201

デジタル台風データ・検索

IBTrACS Databaseについて

本データベースは、米国NOAAが公開する1842年以降の世界の熱帯低気圧のベストトラックデータアーカイブInternational Best Track Archive for Climate Stewardship (IBTrACS)を、ウェブで閲覧しやすい形式に変換したものです。

最終更新日:2021-12-08